createdAt,value
2023-03-16T09:09:56.486Z,0.27
2023-03-16T09:14:44.272Z,2.74
2023-03-16T09:16:52.286Z,18.32
2023-03-16T09:27:00.848Z,18.26
2023-03-16T09:28:01.882Z,18.26
2023-03-16T09:29:01.968Z,18.26
2023-03-16T09:30:02.062Z,18.26
2023-03-16T09:31:02.357Z,18.26
2023-03-16T09:32:02.356Z,18.26
2023-03-16T09:33:02.575Z,18.26
2023-03-16T09:34:02.446Z,18.26
2023-03-16T09:35:02.542Z,18.64
2023-03-16T09:37:04.659Z,18.26
2023-03-16T09:38:06.362Z,18.69
2023-03-16T09:39:04.533Z,37.54
2023-03-16T09:40:11.707Z,36.42
2023-03-16T09:41:04.725Z,33.03
2023-03-16T09:42:04.803Z,30.94
2023-03-16T09:43:04.897Z,29.43
2023-03-16T09:44:04.961Z,28.95
2023-03-16T09:45:05.012Z,28.95
2023-03-16T09:46:05.220Z,28.04
2023-03-16T09:47:05.202Z,28.04
2023-03-16T09:48:05.290Z,27.61
2023-03-16T09:49:05.375Z,27.61
2023-03-16T09:50:05.536Z,27.61
2023-03-16T09:51:05.675Z,27.23
2023-03-16T09:52:05.627Z,26.64
2023-03-16T09:53:05.704Z,26.69
2023-03-16T09:54:05.777Z,26.69
2023-03-16T09:55:05.867Z,26.64
2023-03-16T09:56:05.919Z,26.26
2023-03-16T09:57:06.017Z,26.26
2023-03-16T09:58:06.135Z,26.26
2023-03-16T09:59:07.565Z,26.26
2023-03-16T10:00:06.277Z,25.89
2023-03-16T10:01:06.528Z,25.83
2023-03-16T10:02:06.540Z,25.89
2023-03-16T10:03:06.540Z,25.83
2023-03-16T10:04:06.720Z,25.89
2023-03-16T10:05:06.702Z,25.30
2023-03-16T10:06:06.796Z,25.24
2023-03-16T10:07:13.442Z,25.30
2023-03-16T10:08:07.540Z,25.30
2023-03-16T10:09:07.089Z,25.30
2023-03-16T10:10:07.130Z,25.30
2023-03-16T10:11:07.224Z,25.30
2023-03-16T10:12:07.336Z,25.30
2023-03-16T10:13:07.383Z,24.92
2023-03-16T10:14:07.471Z,24.92
2023-03-16T10:15:07.659Z,24.92
2023-03-16T10:16:07.692Z,24.87
2023-03-16T10:17:07.709Z,24.92
2023-03-16T10:18:07.803Z,24.92
2023-03-16T10:19:07.866Z,24.92
2023-03-16T10:20:07.934Z,24.87
2023-03-16T10:21:08.027Z,24.92
2023-03-16T10:22:08.119Z,24.92
2023-03-16T10:23:08.165Z,24.92
2023-03-16T10:24:08.292Z,24.87
2023-03-16T10:25:08.313Z,24.87
2023-03-16T10:26:08.416Z,24.55
2023-03-16T10:27:08.471Z,24.92
2023-03-16T10:28:08.534Z,24.49
2023-03-16T10:29:08.641Z,24.55
2023-03-16T10:30:08.743Z,24.49
2023-03-16T10:31:08.813Z,24.49
2023-03-16T10:32:08.936Z,24.49
2023-03-16T10:33:10.235Z,24.49
2023-03-16T10:34:09.036Z,24.55
2023-03-16T10:35:09.127Z,24.49
2023-03-16T10:36:09.254Z,24.55
2023-03-16T10:37:09.271Z,24.49
2023-03-16T10:38:16.009Z,24.44
2023-03-16T10:39:09.467Z,24.49
2023-03-16T10:40:09.514Z,24.44
2023-03-16T10:41:09.606Z,24.60
2023-03-16T14:46:20.968Z,0.27
2023-03-16T14:47:22.008Z,0.27
2023-03-16T14:48:22.054Z,0.21
2023-03-16T14:49:22.149Z,0.27
2023-03-16T14:50:22.181Z,0.21
2023-03-16T14:51:22.271Z,0.21
2023-03-16T14:52:22.368Z,0.27
2023-03-16T14:53:22.460Z,0.32
2023-03-16T14:54:22.558Z,0.27
2023-03-16T14:55:22.598Z,0.21
2023-03-16T14:56:22.685Z,0.21
2023-03-16T14:57:22.780Z,0.21
2023-03-16T14:58:22.866Z,0.27
2023-03-16T14:59:22.970Z,0.21
2023-03-16T15:00:23.072Z,0.27
2023-03-16T15:01:23.156Z,0.21
2023-03-16T15:02:23.291Z,0.21
2023-03-16T15:03:23.332Z,0.21
2023-03-16T15:04:23.421Z,0.27
2023-03-16T15:05:23.508Z,0.21
2023-03-16T15:06:23.592Z,0.21
2023-03-16T15:07:23.676Z,0.21
2023-03-16T15:08:23.766Z,0.27
2023-03-16T15:09:23.855Z,0.21
2023-03-16T15:10:23.949Z,0.27
2023-03-16T15:11:24.026Z,0.27
2023-03-16T15:12:24.187Z,0.27
2023-03-16T15:13:24.225Z,0.27
